createdAt,value
2022-08-05T00:02:19.665Z,76388.47
2022-08-05T00:04:46.955Z,76382.47
2022-08-05T00:07:59.390Z,76382.47
2022-08-05T00:10:09.259Z,76380.47
2022-08-05T00:12:35.703Z,76378.47
2022-08-05T00:15:55.227Z,76376.47
2022-08-05T00:18:08.604Z,76372.47
2022-08-05T00:20:35.011Z,76368.47
2022-08-05T00:23:02.759Z,76374.47
2022-08-05T00:25:45.978Z,76370.47
2022-08-05T00:28:13.017Z,76378.47
2022-08-05T00:30:39.444Z,76374.47
2022-08-05T00:34:42.333Z,76370.47
2022-08-05T00:36:16.095Z,76370.47
2022-08-05T00:38:41.337Z,76368.47
2022-08-05T00:41:11.785Z,76370.47
2022-08-05T00:43:46.602Z,76368.47
2022-08-05T00:46:13.967Z,76372.47
2022-08-05T00:48:50.761Z,76364.47
2022-08-05T00:51:51.080Z,76354.47
2022-08-05T00:54:05.203Z,76356.47
2022-08-05T00:56:31.627Z,76350.47
2022-08-05T00:58:58.045Z,76350.47
2022-08-05T01:01:42.877Z,76350.47
2022-08-05T01:04:13.765Z,76348.47
2022-08-05T01:06:40.788Z,76342.44
2022-08-05T01:09:10.111Z,76342.44
2022-08-05T01:11:38.055Z,76342.44
2022-08-05T01:14:16.782Z,76342.44
2022-08-05T01:17:11.003Z,76338.44
2022-08-05T01:20:01.338Z,76338.44
2022-08-05T01:22:41.038Z,76340.44
2022-08-05T01:25:07.413Z,76338.44
2022-08-05T01:27:57.574Z,76340.44
2022-08-05T01:30:34.792Z,76342.44
2022-08-05T01:33:03.521Z,76338.44
2022-08-05T01:35:52.147Z,76342.44
2022-08-05T01:38:27.167Z,76340.44
2022-08-05T01:40:58.202Z,76340.44
2022-08-05T01:43:25.780Z,76338.44
2022-08-05T01:45:56.413Z,76336.44
2022-08-05T01:48:23.991Z,76338.44
2022-08-05T01:50:51.560Z,76346.47
2022-08-05T01:53:54.710Z,76340.44
2022-08-05T01:56:09.464Z,76344.47
2022-08-05T01:58:44.769Z,76346.47
2022-08-05T02:01:13.265Z,76346.47
2022-08-05T02:03:42.455Z,76350.47
2022-08-05T02:06:33.309Z,76346.47
2022-08-05T02:08:58.878Z,76350.47
2022-08-05T02:11:32.670Z,76338.44
2022-08-05T02:14:02.730Z,76342.44
2022-08-05T02:16:36.999Z,76344.47
2022-08-05T02:19:11.770Z,76344.47
2022-08-05T02:21:46.785Z,76338.44
2022-08-05T02:24:18.731Z,76336.44
2022-08-05T02:26:54.028Z,76332.44
2022-08-05T02:29:26.009Z,76338.44
2022-08-05T02:32:10.868Z,76334.44
2022-08-05T02:34:38.125Z,76328.44
2022-08-05T02:37:09.362Z,76328.44
2022-08-05T02:39:37.258Z,76334.44
2022-08-05T02:42:08.504Z,76326.44
2022-08-05T02:44:37.514Z,76324.44
2022-08-05T02:47:05.693Z,76324.44
2022-08-05T02:49:35.630Z,76334.44
2022-08-05T02:52:04.737Z,76334.44
2022-08-05T02:54:35.580Z,76332.44
2022-08-05T02:57:05.240Z,76344.47
2022-08-05T02:59:50.446Z,76334.44
2022-08-05T03:02:19.860Z,76338.44
2022-08-05T03:04:48.172Z,76344.47
2022-08-05T03:07:40.650Z,76330.44
2022-08-05T03:10:07.178Z,76334.44
2022-08-05T03:12:34.963Z,76336.44
2022-08-05T03:15:01.566Z,76338.44
2022-08-05T03:17:28.383Z,76334.44
2022-08-05T03:19:55.131Z,76338.44
2022-08-05T03:22:32.399Z,76330.44
2022-08-05T03:25:11.528Z,76334.44
2022-08-05T03:27:59.387Z,76330.44
2022-08-05T03:30:28.710Z,76326.44
2022-08-05T03:33:00.966Z,76326.44
2022-08-05T03:35:28.813Z,76332.44
2022-08-05T03:37:59.086Z,76326.44
2022-08-05T03:40:32.160Z,76326.44
2022-08-05T03:43:01.478Z,76322.44
2022-08-05T03:45:57.970Z,76322.44
2022-08-05T03:48:26.034Z,76322.44
2022-08-05T03:52:38.608Z,76326.44
2022-08-05T03:55:34.603Z,76322.44
2022-08-05T03:56:46.474Z,76330.44
2022-08-05T03:59:20.452Z,76326.44
2022-08-05T04:01:48.475Z,76330.44
2022-08-05T04:04:16.783Z,76334.44
2022-08-05T04:06:51.190Z,76334.44
2022-08-05T04:09:26.079Z,76332.44
2022-08-05T04:11:53.497Z,76334.44
2022-08-05T04:14:29.977Z,76336.44
2022-08-05T04:16:58.603Z,76342.44
2022-08-05T04:19:25.077Z,76340.44
2022-08-05T04:22:08.561Z,76338.44
2022-08-05T04:24:38.415Z,76340.44
2022-08-05T04:27:11.876Z,76342.44
2022-08-05T04:29:38.736Z,76338.44
2022-08-05T04:32:05.563Z,76338.44
2022-08-05T04:34:35.851Z,76338.44
2022-08-05T04:37:03.612Z,76338.44
2022-08-05T04:39:31.207Z,76328.44
2022-08-05T04:41:58.797Z,76338.44
2022-08-05T04:44:29.573Z,76338.44
2022-08-05T04:46:59.835Z,76340.44
2022-08-05T04:50:01.958Z,76346.47
2022-08-05T04:52:22.911Z,76346.47
2022-08-05T04:54:53.971Z,76352.47
2022-08-05T04:57:23.720Z,76350.47
2022-08-05T04:59:55.783Z,76346.47
2022-08-05T05:02:36.203Z,76344.47
2022-08-05T05:05:16.976Z,76346.47
2022-08-05T05:07:52.856Z,76350.47
2022-08-05T05:10:22.775Z,76358.47
2022-08-05T05:12:50.552Z,76362.47
2022-08-05T05:15:17.493Z,76362.47
2022-08-05T05:18:04.043Z,76362.47
2022-08-05T05:20:30.481Z,76362.47
2022-08-05T05:22:57.678Z,76366.47
2022-08-05T05:25:40.384Z,76368.47
2022-08-05T05:28:07.291Z,76366.47
2022-08-05T05:30:33.997Z,76370.47
2022-08-05T05:33:08.783Z,76370.47
2022-08-05T05:35:43.168Z,76366.47
2022-08-05T05:38:12.890Z,76360.47
2022-08-05T05:40:43.811Z,76360.47
2022-08-05T05:43:16.183Z,76366.47
2022-08-05T05:45:49.173Z,76368.47
2022-08-05T05:48:16.129Z,76366.47
2022-08-05T05:50:44.317Z,76370.47
2022-08-05T05:53:22.628Z,76372.47
2022-08-05T05:55:51.465Z,76376.47
2022-08-05T05:58:31.608Z,76374.47
2022-08-05T06:01:02.574Z,76370.47
2022-08-05T06:03:53.988Z,76378.47
2022-08-05T06:06:25.259Z,76390.47
2022-08-05T06:08:54.619Z,76386.47
2022-08-05T06:11:21.071Z,76382.47
2022-08-05T06:13:53.829Z,76376.47
2022-08-05T06:16:29.497Z,76378.47
2022-08-05T06:18:59.918Z,76394.50
2022-08-05T06:21:35.967Z,76410.50
2022-08-05T06:24:05.111Z,76420.50
2022-08-05T06:26:33.818Z,76418.50
2022-08-05T06:29:03.316Z,76422.50
2022-08-05T06:31:32.751Z,76434.50
2022-08-05T06:34:07.263Z,76442.53
2022-08-05T06:36:56.701Z,76442.53
2022-08-05T06:39:22.019Z,76430.50
2022-08-05T06:41:53.429Z,76434.50
2022-08-05T06:44:19.816Z,76432.50
2022-08-05T06:46:50.966Z,76422.50
2022-08-05T06:49:17.703Z,76426.50
2022-08-05T06:51:45.480Z,76430.50
2022-08-05T06:54:12.035Z,76428.50
2022-08-05T06:56:54.794Z,76422.50
2022-08-05T06:59:38.583Z,76422.50
2022-08-05T07:02:07.945Z,76418.50
2022-08-05T07:04:34.866Z,76424.50
2022-08-05T07:07:03.108Z,76414.50
2022-08-05T07:09:37.444Z,76418.50
2022-08-05T07:12:07.588Z,76422.50
2022-08-05T07:14:54.074Z,76428.50
2022-08-05T07:17:59.534Z,76424.50
2022-08-05T07:22:53.668Z,76418.50
2022-08-05T07:25:23.301Z,76426.50
2022-08-05T07:28:11.495Z,76426.50
2022-08-05T07:30:39.670Z,76434.50
2022-08-05T07:33:09.972Z,76430.50
2022-08-05T07:36:02.813Z,76422.50
2022-08-05T07:38:32.862Z,76428.50
2022-08-05T07:42:08.234Z,76426.50
2022-08-05T07:43:56.432Z,76414.50
2022-08-05T07:46:25.481Z,76396.50
2022-08-05T07:49:02.568Z,76392.50
2022-08-05T07:51:36.754Z,76400.50
2022-08-05T07:54:04.295Z,76402.50
2022-08-05T07:57:00.478Z,76402.50
2022-08-05T07:59:17.871Z,76394.50
2022-08-05T08:01:52.427Z,76396.50
2022-08-05T08:04:37.941Z,76398.50
2022-08-05T08:07:05.623Z,76402.50
2022-08-05T08:09:33.671Z,76398.50
2022-08-05T08:12:06.216Z,76408.50
2022-08-05T08:14:37.830Z,76410.50
2022-08-05T08:17:16.463Z,76410.50
2022-08-05T08:20:43.944Z,76416.50
2022-08-05T08:22:30.068Z,76414.50
2022-08-05T08:24:56.434Z,76410.50
2022-08-05T08:27:35.628Z,76414.50
2022-08-05T08:30:30.058Z,76416.50
2022-08-05T08:33:02.523Z,76424.50
2022-08-05T08:35:34.725Z,76414.50
2022-08-05T08:38:01.958Z,76412.50
2022-08-05T08:40:28.857Z,76416.50
2022-08-05T08:42:56.620Z,76428.50
2022-08-05T08:45:27.123Z,76434.50
2022-08-05T08:48:11.404Z,76440.53
2022-08-05T08:51:04.010Z,76426.50
2022-08-05T08:53:35.452Z,76426.50
2022-08-05T08:56:05.822Z,76430.50
2022-08-05T08:58:37.633Z,76430.50
2022-08-05T09:01:15.828Z,76438.53
2022-08-05T09:03:45.628Z,76438.53
2022-08-05T09:06:13.866Z,76432.50
2022-08-05T09:08:45.283Z,76434.50
2022-08-05T09:11:13.924Z,76434.50
2022-08-05T09:14:09.069Z,76438.53
2022-08-05T09:16:27.922Z,76438.53
2022-08-05T09:18:55.473Z,76434.50
2022-08-05T09:22:31.218Z,76434.50
2022-08-05T09:24:10.221Z,76448.53
2022-08-05T09:26:37.071Z,76446.53
2022-08-05T09:29:05.820Z,76454.53
2022-08-05T09:32:41.866Z,76458.53
2022-08-05T09:34:22.368Z,76470.53
2022-08-05T09:36:56.412Z,76472.53
2022-08-05T09:39:27.581Z,76480.53
2022-08-05T09:42:08.510Z,76482.53
2022-08-05T09:44:50.807Z,76486.56
2022-08-05T09:47:20.598Z,76496.56
2022-08-05T09:50:01.632Z,76498.56
2022-08-05T09:52:33.850Z,76502.56
2022-08-05T09:55:06.330Z,76506.56
2022-08-05T09:57:48.279Z,76502.56
2022-08-05T10:00:16.176Z,76494.56
2022-08-05T10:02:47.232Z,76494.56
2022-08-05T10:05:24.457Z,76494.56
2022-08-05T10:08:34.840Z,76494.56
2022-08-05T10:10:44.281Z,76478.53
2022-08-05T10:13:11.541Z,76472.53
2022-08-05T10:15:41.693Z,76452.53
2022-08-05T10:18:08.782Z,76462.53
2022-08-05T10:20:36.745Z,76468.53
2022-08-05T10:23:04.506Z,76470.53
2022-08-05T10:25:49.196Z,76482.53
2022-08-05T10:28:19.621Z,76482.53
2022-08-05T10:32:54.222Z,76474.53
2022-08-05T10:33:43.476Z,76486.56
2022-08-05T10:36:10.708Z,76482.53
2022-08-05T10:38:38.021Z,76480.53
2022-08-05T10:41:23.482Z,76490.56
2022-08-05T10:44:01.630Z,76508.56
2022-08-05T10:46:47.010Z,76484.56
2022-08-05T10:49:17.677Z,76476.53
2022-08-05T10:52:00.112Z,76470.53
2022-08-05T10:54:46.847Z,76458.53
2022-08-05T10:57:25.093Z,76476.53
2022-08-05T11:00:17.872Z,76482.53
2022-08-05T11:03:25.120Z,76484.56
2022-08-05T11:06:08.466Z,76470.53
2022-08-05T11:08:37.970Z,76452.53
2022-08-05T11:11:24.427Z,76454.53
2022-08-05T11:14:00.603Z,76458.53
2022-08-05T11:16:33.747Z,76474.53
2022-08-05T11:20:10.754Z,76476.53
2022-08-05T11:22:33.144Z,76478.53
2022-08-05T11:26:05.736Z,76472.53
2022-08-05T11:28:16.996Z,76466.53
2022-08-05T11:30:58.783Z,76488.56
2022-08-05T11:33:25.775Z,76498.56
2022-08-05T11:36:11.223Z,76502.56
2022-08-05T11:38:46.039Z,76512.56
2022-08-05T11:41:54.640Z,76510.56
2022-08-05T11:44:12.407Z,76524.56
2022-08-05T11:46:58.404Z,76516.56
2022-08-05T11:49:36.379Z,76518.56
2022-08-05T11:52:11.271Z,76524.56
2022-08-05T11:54:40.388Z,76518.56
2022-08-05T11:57:25.003Z,76522.56
2022-08-05T11:59:53.684Z,76526.59
2022-08-05T12:02:31.963Z,76522.56
2022-08-05T12:05:07.374Z,76522.56
2022-08-05T12:08:09.591Z,76518.56
2022-08-05T12:10:23.133Z,76518.56
2022-08-05T12:12:59.471Z,76520.56
2022-08-05T12:15:35.932Z,76532.59
2022-08-05T12:18:10.925Z,76536.59
2022-08-05T12:20:38.804Z,76534.59
2022-08-05T12:23:12.352Z,76532.59
2022-08-05T12:26:05.096Z,76530.59
2022-08-05T12:28:34.185Z,76534.59
2022-08-05T12:31:02.346Z,76530.59
2022-08-05T12:33:36.251Z,76530.59
2022-08-05T12:36:03.720Z,76526.59
2022-08-05T12:38:35.818Z,76526.59
2022-08-05T12:41:03.287Z,76522.56
2022-08-05T12:43:32.225Z,76526.59
2022-08-05T12:45:58.857Z,76522.56
2022-08-05T12:48:27.141Z,76526.59
2022-08-05T12:52:10.378Z,76522.56
2022-08-05T12:54:16.977Z,76522.56
2022-08-05T12:56:51.494Z,76526.59
2022-08-05T12:59:27.368Z,76520.56
2022-08-05T13:02:03.140Z,76524.56
2022-08-05T13:04:34.747Z,76520.56
2022-08-05T13:07:16.094Z,76526.59
2022-08-05T13:09:50.846Z,76526.59
2022-08-05T13:12:28.515Z,76526.59
2022-08-05T13:15:06.276Z,76524.56
2022-08-05T13:17:41.843Z,76520.56
2022-08-05T13:20:10.228Z,76522.56
2022-08-05T13:22:38.792Z,76522.56
2022-08-05T13:25:19.242Z,76518.56
2022-08-05T13:27:50.550Z,76508.56
2022-08-05T13:30:34.035Z,76506.56
2022-08-05T13:33:03.561Z,76502.56
2022-08-05T13:35:42.479Z,76500.56
2022-08-05T13:38:14.551Z,76502.56
2022-08-05T13:40:49.972Z,76498.56
2022-08-05T13:43:21.754Z,76490.56
2022-08-05T13:45:48.702Z,76488.56
2022-08-05T13:48:57.244Z,76490.56
2022-08-05T13:51:11.316Z,76490.56
2022-08-05T13:53:48.259Z,76486.56
2022-08-05T13:56:18.434Z,76482.53
2022-08-05T13:58:52.752Z,76490.56
2022-08-05T14:01:21.277Z,76486.56
2022-08-05T14:04:12.608Z,76482.53
2022-08-05T14:06:39.018Z,76490.56
2022-08-05T14:09:14.107Z,76488.56
2022-08-05T14:12:04.419Z,76498.56
2022-08-05T14:14:33.694Z,76490.56
2022-08-05T14:17:00.435Z,76488.56
2022-08-05T14:19:27.243Z,76494.56
2022-08-05T14:22:09.874Z,76490.56
2022-08-05T14:24:39.890Z,76492.56
2022-08-05T14:27:18.228Z,76490.56
2022-08-05T14:29:45.259Z,76488.56
2022-08-05T14:32:26.982Z,76488.56
2022-08-05T14:34:54.018Z,76488.56
2022-08-05T14:37:45.219Z,76492.56
2022-08-05T14:40:14.230Z,76494.56
2022-08-05T14:42:43.367Z,76502.56
2022-08-05T14:45:10.257Z,76498.56
2022-08-05T14:48:05.259Z,76498.56
2022-08-05T14:50:25.321Z,76498.56
2022-08-05T14:52:56.922Z,76498.56
2022-08-05T14:55:25.154Z,76506.56
2022-08-05T14:57:54.390Z,76498.56
2022-08-05T15:00:27.969Z,76500.56
2022-08-05T15:02:56.389Z,76502.56
2022-08-05T15:05:29.762Z,76506.56
2022-08-05T15:08:11.543Z,76504.56
2022-08-05T15:10:43.493Z,76502.56
2022-08-05T15:13:12.733Z,76506.56
2022-08-05T15:15:55.629Z,76510.56
2022-08-05T15:18:22.761Z,76512.56
2022-08-05T15:20:49.630Z,76508.56
2022-08-05T15:23:17.355Z,76512.56
2022-08-05T15:25:52.148Z,76514.56
2022-08-05T15:28:19.624Z,76518.56
2022-08-05T15:30:53.460Z,76518.56
2022-08-05T15:33:53.762Z,76516.56
2022-08-05T15:36:16.664Z,76512.56
2022-08-05T15:38:44.735Z,76518.56
2022-08-05T15:41:21.523Z,76514.56
2022-08-05T15:43:50.702Z,76506.56
2022-08-05T15:46:19.031Z,76510.56
2022-08-05T15:48:52.918Z,76522.56
2022-08-05T15:52:03.837Z,76524.56
2022-08-05T15:54:15.280Z,76522.56
2022-08-05T15:56:42.280Z,76530.59
2022-08-05T15:59:09.964Z,76526.59
2022-08-05T16:01:53.173Z,76530.59
2022-08-05T16:04:20.376Z,76524.56
2022-08-05T16:06:51.672Z,76522.56
2022-08-05T16:09:18.650Z,76526.59
2022-08-05T16:11:52.753Z,76522.56
2022-08-05T16:14:19.681Z,76528.59
2022-08-05T16:16:47.246Z,76526.59
2022-08-05T16:19:25.711Z,76528.59
2022-08-05T16:22:03.057Z,76532.59
2022-08-05T16:24:40.130Z,76534.59
2022-08-05T16:27:07.564Z,76538.59
2022-08-05T16:29:37.516Z,76540.59
2022-08-05T16:32:05.003Z,76546.59
2022-08-05T16:34:32.081Z,76550.59
2022-08-05T16:36:58.466Z,76552.59
2022-08-05T16:40:04.899Z,76566.59
2022-08-05T16:42:14.592Z,76590.63
2022-08-05T16:44:44.315Z,76590.63
2022-08-05T16:47:28.720Z,76590.63
2022-08-05T16:50:02.308Z,76586.63
2022-08-05T16:52:32.554Z,76554.59
2022-08-05T16:55:00.028Z,76562.59
2022-08-05T16:57:30.171Z,76574.63
2022-08-05T17:00:14.143Z,76582.63
2022-08-05T17:02:52.250Z,76594.63
2022-08-05T17:05:19.034Z,76594.63
2022-08-05T17:07:53.110Z,76590.63
2022-08-05T17:10:21.399Z,76600.63
2022-08-05T17:12:54.734Z,76596.63
2022-08-05T17:15:21.398Z,76604.63
2022-08-05T17:17:54.857Z,76606.63
2022-08-05T17:20:21.888Z,76606.63
2022-08-05T17:22:52.681Z,76608.63
2022-08-05T17:25:34.116Z,76618.66
2022-08-05T17:28:07.769Z,76614.66
2022-08-05T17:30:50.334Z,76618.66
2022-08-05T17:33:19.978Z,76620.66
2022-08-05T17:36:07.424Z,76632.66
2022-08-05T17:38:33.027Z,76634.66
2022-08-05T17:40:59.459Z,76646.66
2022-08-05T17:43:46.970Z,76650.66
2022-08-05T17:46:12.819Z,76662.69
2022-08-05T17:48:40.046Z,76668.69
2022-08-05T17:51:09.677Z,76670.69
2022-08-05T17:53:36.120Z,76672.69
2022-08-05T17:56:04.618Z,76678.69
2022-08-05T17:58:32.453Z,76678.69
2022-08-05T18:00:59.444Z,76690.69
2022-08-05T18:03:56.525Z,76698.69
2022-08-05T18:06:15.144Z,76708.72
2022-08-05T18:08:45.102Z,76712.72
2022-08-05T18:11:24.866Z,76702.72
2022-08-05T18:13:59.947Z,76714.72
2022-08-05T18:16:26.444Z,76714.72
2022-08-05T18:18:52.918Z,76722.72
2022-08-05T18:21:23.072Z,76722.72
2022-08-05T18:23:53.761Z,76734.72
2022-08-05T18:26:21.202Z,76734.72
2022-08-05T18:28:54.647Z,76738.75
2022-08-05T18:31:23.447Z,76752.75
2022-08-05T18:33:51.734Z,76756.75
2022-08-05T18:36:19.197Z,76766.75
2022-08-05T18:38:45.887Z,76758.75
2022-08-05T18:41:56.778Z,76752.75
2022-08-05T18:44:06.249Z,76750.75
2022-08-05T18:46:34.382Z,76746.75
2022-08-05T18:49:20.735Z,76758.75
2022-08-05T18:52:08.831Z,76766.75
2022-08-05T18:54:35.744Z,76776.75
2022-08-05T18:57:02.531Z,76770.75
2022-08-05T18:59:43.587Z,76774.75
2022-08-05T19:02:28.021Z,76764.75
2022-08-05T19:05:02.932Z,76776.75
2022-08-05T19:07:46.187Z,76782.78
2022-08-05T19:10:13.306Z,76794.78
2022-08-05T19:12:40.003Z,76800.78
2022-08-05T19:15:10.661Z,76806.78
2022-08-05T19:17:59.121Z,76814.78
2022-08-05T19:20:36.549Z,76824.81
2022-08-05T19:23:03.142Z,76834.81
2022-08-05T19:25:43.409Z,76842.81
2022-08-05T19:28:10.414Z,76856.81
2022-08-05T19:30:36.841Z,76856.81
2022-08-05T19:33:04.626Z,76846.81
2022-08-05T19:35:56.303Z,76848.81
2022-08-05T19:38:24.036Z,76862.84
2022-08-05T19:40:53.012Z,76856.81
2022-08-05T19:43:31.211Z,76846.81
2022-08-05T19:46:06.206Z,76850.81
2022-08-05T19:48:43.487Z,76852.81
2022-08-05T19:52:05.666Z,76852.81
2022-08-05T19:54:04.323Z,76852.81
2022-08-05T19:56:34.514Z,76848.81
2022-08-05T19:59:51.228Z,76850.81
2022-08-05T20:01:47.515Z,76854.81
2022-08-05T20:04:14.178Z,76856.81
2022-08-05T20:06:46.528Z,76854.81
2022-08-05T20:09:13.865Z,76854.81
2022-08-05T20:11:40.894Z,76858.84
2022-08-05T20:14:17.249Z,76858.84
2022-08-05T20:16:49.739Z,76862.84
2022-08-05T20:19:16.447Z,76866.84
2022-08-05T20:21:43.362Z,76870.84
2022-08-05T20:24:11.387Z,76874.84
2022-08-05T20:26:38.038Z,76890.84
2022-08-05T20:29:04.608Z,76884.84
2022-08-05T20:31:43.010Z,76890.84
2022-08-05T20:34:17.619Z,76902.88
2022-08-05T20:36:44.460Z,76900.88
2022-08-05T20:39:13.256Z,76906.88
2022-08-05T20:41:43.794Z,76918.88
2022-08-05T20:44:19.017Z,76936.91
2022-08-05T20:47:00.658Z,76932.88
2022-08-05T20:49:27.327Z,76934.91
2022-08-05T20:51:54.654Z,76934.91
2022-08-05T20:54:21.750Z,76942.91
2022-08-05T20:56:48.967Z,76942.91
2022-08-05T20:59:19.158Z,76946.91
2022-08-05T21:01:46.617Z,76944.91
2022-08-05T21:04:13.600Z,76950.91
2022-08-05T21:06:45.531Z,76954.91
2022-08-05T21:09:12.395Z,76950.91
2022-08-05T21:12:07.316Z,76954.91
2022-08-05T21:14:27.231Z,76958.91
2022-08-05T21:16:53.679Z,76966.91
2022-08-05T21:19:20.180Z,76968.91
2022-08-05T21:21:50.945Z,76976.94
2022-08-05T21:24:19.415Z,76970.91
2022-08-05T21:26:53.480Z,76970.91
2022-08-05T21:29:26.574Z,76982.94
2022-08-05T21:31:58.386Z,76976.94
2022-08-05T21:34:24.819Z,76982.94
2022-08-05T21:36:51.286Z,76984.94
2022-08-05T21:39:27.015Z,76990.94
2022-08-05T21:42:02.149Z,76988.94
2022-08-05T21:44:29.179Z,76994.94
2022-08-05T21:46:58.024Z,76994.94
2022-08-05T21:49:48.564Z,76994.94
2022-08-05T21:52:28.153Z,77002.94
2022-08-05T21:54:55.822Z,77006.94
2022-08-05T21:57:42.701Z,77002.94
2022-08-05T22:00:11.772Z,77008.97
2022-08-05T22:02:38.510Z,77004.94
2022-08-05T22:05:05.221Z,76994.94
2022-08-05T22:07:39.460Z,76990.94
2022-08-05T22:10:18.510Z,76996.94
2022-08-05T22:12:53.691Z,77018.97
2022-08-05T22:16:00.595Z,77020.97
2022-08-05T22:18:08.713Z,77022.97
2022-08-05T22:20:38.998Z,77022.97
2022-08-05T22:23:25.016Z,77026.97
2022-08-05T22:26:29.871Z,77032.97
2022-08-05T22:28:56.339Z,77038.97
2022-08-05T22:31:22.847Z,77030.97
2022-08-05T22:33:57.025Z,77030.97
2022-08-05T22:36:25.604Z,77034.97
2022-08-05T22:38:52.153Z,77038.97
2022-08-05T22:42:05.491Z,77040.97
2022-08-05T22:44:07.924Z,77034.97
2022-08-05T22:46:39.820Z,77038.97
2022-08-05T22:49:07.923Z,77038.97
2022-08-05T22:52:06.528Z,77028.97
2022-08-05T22:54:25.694Z,77034.97
2022-08-05T22:56:54.245Z,77030.97
2022-08-05T22:59:48.576Z,77028.97
2022-08-05T23:02:08.402Z,77038.97
2022-08-05T23:04:35.432Z,77024.97
2022-08-05T23:07:02.924Z,77032.97
2022-08-05T23:09:57.826Z,77034.97
2022-08-05T23:12:17.914Z,77034.97
2022-08-05T23:14:44.566Z,77040.97
2022-08-05T23:17:34.216Z,77036.97
2022-08-05T23:20:04.875Z,77047.00
2022-08-05T23:22:31.910Z,77034.97
2022-08-05T23:24:59.797Z,77044.97
2022-08-05T23:27:28.939Z,77047.00
2022-08-05T23:30:10.769Z,77042.97
2022-08-05T23:32:37.387Z,77047.00
2022-08-05T23:35:07.374Z,77055.00
2022-08-05T23:37:34.233Z,77059.00
2022-08-05T23:40:07.811Z,77057.00
2022-08-05T23:42:37.323Z,77053.00
2022-08-05T23:45:05.277Z,77051.00
2022-08-05T23:47:48.266Z,77047.00
2022-08-05T23:50:17.139Z,77042.97
2022-08-05T23:52:50.022Z,77042.97
2022-08-05T23:55:17.132Z,77042.97
2022-08-05T23:57:43.880Z,77047.00
